sensor_id;sensor_type;location;lat;lon;timestamp;pressure;altitude;pressure_sealevel;temperature;humidity
11343;BME280;5726;42.160;24.746;2023-03-12T00:00:28;98468.97;;;9.56;64.70
11343;BME280;5726;42.160;24.746;2023-03-12T00:02:54;98477.28;;;9.76;62.40
11343;BME280;5726;42.160;24.746;2023-03-12T00:05:20;98476.94;;;9.69;62.46
11343;BME280;5726;42.160;24.746;2023-03-12T00:07:47;98468.72;;;9.66;63.56
11343;BME280;5726;42.160;24.746;2023-03-12T00:10:13;98472.84;;;9.72;64.05
11343;BME280;5726;42.160;24.746;2023-03-12T00:12:38;98474.81;;;9.58;64.05
11343;BME280;5726;42.160;24.746;2023-03-12T00:15:05;98486.63;;;9.57;60.17
11343;BME280;5726;42.160;24.746;2023-03-12T00:17:30;98483.44;;;9.55;57.07
11343;BME280;5726;42.160;24.746;2023-03-12T00:19:56;98478.22;;;9.50;56.66
11343;BME280;5726;42.160;24.746;2023-03-12T00:22:21;98476.53;;;9.54;57.52
11343;BME280;5726;42.160;24.746;2023-03-12T00:24:53;98494.69;;;9.65;57.75
11343;BME280;5726;42.160;24.746;2023-03-12T00:27:19;98480.31;;;9.53;65.33
11343;BME280;5726;42.160;24.746;2023-03-12T00:29:45;98487.00;;;9.42;68.37
11343;BME280;5726;42.160;24.746;2023-03-12T00:32:10;98492.91;;;9.31;69.47
11343;BME280;5726;42.160;24.746;2023-03-12T00:34:36;98479.41;;;9.14;70.54
11343;BME280;5726;42.160;24.746;2023-03-12T00:37:01;98488.56;;;9.00;71.61
11343;BME280;5726;42.160;24.746;2023-03-12T00:39:26;98482.25;;;9.17;70.45
11343;BME280;5726;42.160;24.746;2023-03-12T00:41:52;98483.47;;;9.11;71.59
11343;BME280;5726;42.160;24.746;2023-03-12T00:44:17;98487.50;;;9.01;71.58
11343;BME280;5726;42.160;24.746;2023-03-12T00:46:43;98477.03;;;8.91;71.51
11343;BME280;5726;42.160;24.746;2023-03-12T00:49:08;98475.44;;;8.90;71.39
11343;BME280;5726;42.160;24.746;2023-03-12T00:51:34;98457.31;;;8.65;73.74
11343;BME280;5726;42.160;24.746;2023-03-12T00:54:00;98461.47;;;8.71;73.07
11343;BME280;5726;42.160;24.746;2023-03-12T00:56:25;98464.47;;;8.56;72.76
11343;BME280;5726;42.160;24.746;2023-03-12T00:58:51;98471.97;;;8.54;72.27
11343;BME280;5726;42.160;24.746;2023-03-12T01:01:16;98487.09;;;8.58;71.00
11343;BME280;5726;42.160;24.746;2023-03-12T01:03:42;98475.81;;;8.61;68.34
11343;BME280;5726;42.160;24.746;2023-03-12T01:06:07;98492.09;;;8.73;67.30
11343;BME280;5726;42.160;24.746;2023-03-12T01:08:33;98493.25;;;8.94;65.12
11343;BME280;5726;42.160;24.746;2023-03-12T01:10:59;98505.13;;;8.88;64.55
11343;BME280;5726;42.160;24.746;2023-03-12T01:13:24;98511.25;;;8.67;64.14
11343;BME280;5726;42.160;24.746;2023-03-12T01:15:50;98491.97;;;8.57;64.39
11343;BME280;5726;42.160;24.746;2023-03-12T01:18:15;98508.28;;;8.55;63.62
11343;BME280;5726;42.160;24.746;2023-03-12T01:20:40;98506.22;;;8.52;63.13
11343;BME280;5726;42.160;24.746;2023-03-12T01:23:06;98512.47;;;8.21;64.10
11343;BME280;5726;42.160;24.746;2023-03-12T01:25:32;98516.63;;;8.40;63.23
11343;BME280;5726;42.160;24.746;2023-03-12T01:27:58;98508.00;;;8.43;62.25
11343;BME280;5726;42.160;24.746;2023-03-12T01:30:24;98507.25;;;8.29;62.74
11343;BME280;5726;42.160;24.746;2023-03-12T01:32:53;98500.16;;;8.07;62.85
11343;BME280;5726;42.160;24.746;2023-03-12T01:35:18;98525.19;;;7.97;63.23
11343;BME280;5726;42.160;24.746;2023-03-12T01:37:44;98522.50;;;7.97;62.79
11343;BME280;5726;42.160;24.746;2023-03-12T01:40:21;98522.03;;;8.08;62.51
11343;BME280;5726;42.160;24.746;2023-03-12T01:42:56;98531.13;;;8.07;61.92
11343;BME280;5726;42.160;24.746;2023-03-12T01:48:18;98533.69;;;7.99;61.65
11343;BME280;5726;42.160;24.746;2023-03-12T01:50:44;98546.94;;;7.91;62.63
11343;BME280;5726;42.160;24.746;2023-03-12T01:53:10;98553.56;;;8.07;61.21
11343;BME280;5726;42.160;24.746;2023-03-12T01:55:36;98568.75;;;7.93;61.57
11343;BME280;5726;42.160;24.746;2023-03-12T01:58:01;98572.41;;;7.83;60.66
11343;BME280;5726;42.160;24.746;2023-03-12T02:00:27;98570.09;;;7.77;60.57
11343;BME280;5726;42.160;24.746;2023-03-12T02:02:55;98579.22;;;7.76;60.75
11343;BME280;5726;42.160;24.746;2023-03-12T02:08:12;98588.38;;;7.70;60.59
11343;BME280;5726;42.160;24.746;2023-03-12T02:10:38;98591.13;;;7.65;60.52
11343;BME280;5726;42.160;24.746;2023-03-12T02:13:04;98591.75;;;7.75;59.49
11343;BME280;5726;42.160;24.746;2023-03-12T02:15:31;98606.28;;;7.83;58.99
11343;BME280;5726;42.160;24.746;2023-03-12T02:17:57;98617.63;;;7.75;58.61
11343;BME280;5726;42.160;24.746;2023-03-12T02:20:27;98618.00;;;7.68;58.74
11343;BME280;5726;42.160;24.746;2023-03-12T02:26:01;98628.75;;;7.63;58.31
11343;BME280;5726;42.160;24.746;2023-03-12T02:28:28;98622.72;;;7.58;58.04
11343;BME280;5726;42.160;24.746;2023-03-12T02:31:00;98632.50;;;7.44;57.73
11343;BME280;5726;42.160;24.746;2023-03-12T02:33:26;98646.38;;;7.46;57.97
11343;BME280;5726;42.160;24.746;2023-03-12T02:35:52;98661.72;;;7.36;57.98
11343;BME280;5726;42.160;24.746;2023-03-12T02:38:41;98660.63;;;7.37;58.10
11343;BME280;5726;42.160;24.746;2023-03-12T02:43:47;98660.50;;;7.28;58.36
11343;BME280;5726;42.160;24.746;2023-03-12T02:46:14;98676.50;;;7.28;58.09
11343;BME280;5726;42.160;24.746;2023-03-12T02:48:40;98668.97;;;7.30;57.77
11343;BME280;5726;42.160;24.746;2023-03-12T02:51:06;98673.00;;;7.28;57.36
11343;BME280;5726;42.160;24.746;2023-03-12T02:53:31;98668.97;;;7.30;57.37
11343;BME280;5726;42.160;24.746;2023-03-12T02:55:57;98674.59;;;7.29;57.43
11343;BME280;5726;42.160;24.746;2023-03-12T02:58:22;98684.19;;;7.30;57.16
11343;BME280;5726;42.160;24.746;2023-03-12T03:00:48;98684.78;;;7.27;56.86
11343;BME280;5726;42.160;24.746;2023-03-12T03:03:14;98657.88;;;7.23;56.57
11343;BME280;5726;42.160;24.746;2023-03-12T03:05:39;98677.09;;;7.20;57.10
11343;BME280;5726;42.160;24.746;2023-03-12T03:08:05;98694.53;;;7.13;56.91
11343;BME280;5726;42.160;24.746;2023-03-12T03:10:30;98696.34;;;7.17;56.39
11343;BME280;5726;42.160;24.746;2023-03-12T03:12:56;98707.53;;;7.19;56.78
11343;BME280;5726;42.160;24.746;2023-03-12T03:15:22;98713.75;;;7.10;56.91
11343;BME280;5726;42.160;24.746;2023-03-12T03:17:47;98705.19;;;7.13;57.19
11343;BME280;5726;42.160;24.746;2023-03-12T03:20:13;98710.81;;;7.12;56.90
11343;BME280;5726;42.160;24.746;2023-03-12T03:22:38;98705.94;;;7.18;56.88
11343;BME280;5726;42.160;24.746;2023-03-12T03:25:05;98708.84;;;6.99;57.84
11343;BME280;5726;42.160;24.746;2023-03-12T03:27:31;98703.63;;;6.89;58.17
11343;BME280;5726;42.160;24.746;2023-03-12T03:29:56;98713.81;;;6.82;58.36
11343;BME280;5726;42.160;24.746;2023-03-12T03:32:22;98711.78;;;6.74;58.96
11343;BME280;5726;42.160;24.746;2023-03-12T03:34:47;98708.97;;;6.89;58.38
11343;BME280;5726;42.160;24.746;2023-03-12T03:37:13;98723.56;;;6.68;58.88
11343;BME280;5726;42.160;24.746;2023-03-12T03:39:38;98727.97;;;6.82;58.67
11343;BME280;5726;42.160;24.746;2023-03-12T03:42:04;98728.25;;;6.81;57.94
11343;BME280;5726;42.160;24.746;2023-03-12T03:44:29;98730.16;;;6.75;57.98
11343;BME280;5726;42.160;24.746;2023-03-12T03:46:55;98755.38;;;6.83;57.47
11343;BME280;5726;42.160;24.746;2023-03-12T03:49:21;98749.31;;;6.77;57.60
11343;BME280;5726;42.160;24.746;2023-03-12T03:51:47;98763.94;;;6.80;56.98
11343;BME280;5726;42.160;24.746;2023-03-12T03:54:12;98759.84;;;6.87;56.52
11343;BME280;5726;42.160;24.746;2023-03-12T03:56:39;98759.06;;;6.87;56.40
11343;BME280;5726;42.160;24.746;2023-03-12T03:59:05;98760.53;;;6.98;56.64
11343;BME280;5726;42.160;24.746;2023-03-12T04:01:31;98755.19;;;6.74;56.95
11343;BME280;5726;42.160;24.746;2023-03-12T04:03:57;98736.25;;;6.76;56.36
11343;BME280;5726;42.160;24.746;2023-03-12T04:06:23;98757.47;;;6.86;56.00
11343;BME280;5726;42.160;24.746;2023-03-12T04:08:48;98753.78;;;6.82;55.77
11343;BME280;5726;42.160;24.746;2023-03-12T04:11:19;98761.78;;;6.82;54.86
11343;BME280;5726;42.160;24.746;2023-03-12T04:13:45;98763.59;;;6.86;53.90
11343;BME280;5726;42.160;24.746;2023-03-12T04:16:11;98767.06;;;6.87;54.32
11343;BME280;5726;42.160;24.746;2023-03-12T04:18:37;98782.44;;;6.95;53.86
11343;BME280;5726;42.160;24.746;2023-03-12T04:21:05;98778.69;;;6.96;53.84
11343;BME280;5726;42.160;24.746;2023-03-12T04:23:31;98795.59;;;7.10;53.05
11343;BME280;5726;42.160;24.746;2023-03-12T04:25:57;98790.53;;;7.08;53.06
11343;BME280;5726;42.160;24.746;2023-03-12T04:28:23;98792.47;;;7.03;53.05
11343;BME280;5726;42.160;24.746;2023-03-12T04:31:04;98783.41;;;7.04;53.19
11343;BME280;5726;42.160;24.746;2023-03-12T04:33:33;98793.78;;;7.05;52.86
11343;BME280;5726;42.160;24.746;2023-03-12T04:35:59;98792.69;;;6.83;53.00
11343;BME280;5726;42.160;24.746;2023-03-12T04:38:25;98788.66;;;7.09;51.79
11343;BME280;5726;42.160;24.746;2023-03-12T04:43:27;98794.25;;;7.12;51.25
11343;BME280;5726;42.160;24.746;2023-03-12T04:45:54;98806.47;;;7.13;51.47
11343;BME280;5726;42.160;24.746;2023-03-12T04:48:19;98820.44;;;7.28;50.94
11343;BME280;5726;42.160;24.746;2023-03-12T04:50:45;98820.50;;;7.65;50.05
11343;BME280;5726;42.160;24.746;2023-03-12T04:53:10;98826.78;;;7.74;49.81
11343;BME280;5726;42.160;24.746;2023-03-12T04:55:36;98837.28;;;7.89;49.48
11343;BME280;5726;42.160;24.746;2023-03-12T04:58:01;98838.88;;;8.08;49.43
11343;BME280;5726;42.160;24.746;2023-03-12T05:00:26;98841.88;;;8.43;48.53
11343;BME280;5726;42.160;24.746;2023-03-12T05:02:52;98848.97;;;8.66;47.07
11343;BME280;5726;42.160;24.746;2023-03-12T05:05:18;98851.16;;;8.64;46.85
11343;BME280;5726;42.160;24.746;2023-03-12T05:07:43;98844.06;;;8.73;46.91
11343;BME280;5726;42.160;24.746;2023-03-12T05:10:09;98850.78;;;9.15;45.97
11343;BME280;5726;42.160;24.746;2023-03-12T05:12:34;98854.44;;;9.06;45.84
11343;BME280;5726;42.160;24.746;2023-03-12T05:15:00;98854.25;;;9.16;45.31
11343;BME280;5726;42.160;24.746;2023-03-12T05:17:25;98872.69;;;9.17;45.67
11343;BME280;5726;42.160;24.746;2023-03-12T05:19:51;98876.44;;;9.30;45.29
11343;BME280;5726;42.160;24.746;2023-03-12T05:22:17;98873.72;;;9.48;45.09
11343;BME280;5726;42.160;24.746;2023-03-12T05:24:42;98866.34;;;9.27;45.43
11343;BME280;5726;42.160;24.746;2023-03-12T05:27:07;98885.94;;;9.09;45.55
11343;BME280;5726;42.160;24.746;2023-03-12T05:29:33;98888.06;;;8.94;46.51
11343;BME280;5726;42.160;24.746;2023-03-12T05:32:03;98893.13;;;8.95;46.57
11343;BME280;5726;42.160;24.746;2023-03-12T05:34:30;98883.22;;;8.96;46.22
11343;BME280;5726;42.160;24.746;2023-03-12T05:36:58;98888.88;;;9.07;45.86
11343;BME280;5726;42.160;24.746;2023-03-12T05:39:25;98899.44;;;8.86;46.77
11343;BME280;5726;42.160;24.746;2023-03-12T05:41:51;98891.00;;;8.79;46.73
11343;BME280;5726;42.160;24.746;2023-03-12T05:44:21;98895.41;;;9.02;46.83
11343;BME280;5726;42.160;24.746;2023-03-12T05:46:47;98892.25;;;9.00;47.20
11343;BME280;5726;42.160;24.746;2023-03-12T05:49:12;98902.47;;;9.56;48.89
11343;BME280;5726;42.160;24.746;2023-03-12T05:51:38;98906.75;;;10.10;49.54
11343;BME280;5726;42.160;24.746;2023-03-12T05:54:03;98901.88;;;10.12;46.80
11343;BME280;5726;42.160;24.746;2023-03-12T05:56:29;98900.84;;;10.35;48.22
11343;BME280;5726;42.160;24.746;2023-03-12T05:58:54;98906.19;;;10.35;43.78
11343;BME280;5726;42.160;24.746;2023-03-12T06:01:23;98907.78;;;10.36;43.68
11343;BME280;5726;42.160;24.746;2023-03-12T06:03:49;98909.00;;;10.30;43.46
11343;BME280;5726;42.160;24.746;2023-03-12T06:06:15;98919.63;;;10.22;42.78
11343;BME280;5726;42.160;24.746;2023-03-12T06:08:41;98933.19;;;10.25;42.93
11343;BME280;5726;42.160;24.746;2023-03-12T06:11:07;98934.78;;;9.73;44.21
11343;BME280;5726;42.160;24.746;2023-03-12T06:13:32;98936.97;;;9.71;44.21
11343;BME280;5726;42.160;24.746;2023-03-12T06:16:19;98939.81;;;9.61;43.75
11343;BME280;5726;42.160;24.746;2023-03-12T06:18:45;98960.25;;;9.57;44.09
11343;BME280;5726;42.160;24.746;2023-03-12T06:21:17;98963.59;;;9.94;43.84
11343;BME280;5726;42.160;24.746;2023-03-12T06:23:43;98970.00;;;10.47;43.80
11343;BME280;5726;42.160;24.746;2023-03-12T06:26:10;98970.88;;;10.55;43.04
11343;BME280;5726;42.160;24.746;2023-03-12T06:28:36;98962.53;;;10.57;42.17
11343;BME280;5726;42.160;24.746;2023-03-12T06:31:03;98956.56;;;10.60;41.64
11343;BME280;5726;42.160;24.746;2023-03-12T06:33:29;98972.44;;;10.56;40.63
11343;BME280;5726;42.160;24.746;2023-03-12T06:35:56;98981.88;;;10.89;39.56
11343;BME280;5726;42.160;24.746;2023-03-12T06:38:23;98976.84;;;11.09;39.12
11343;BME280;5726;42.160;24.746;2023-03-12T06:40:58;98983.88;;;10.97;38.46
11343;BME280;5726;42.160;24.746;2023-03-12T06:43:26;98999.59;;;10.77;38.07
11343;BME280;5726;42.160;24.746;2023-03-12T06:45:56;98997.03;;;10.72;38.03
11343;BME280;5726;42.160;24.746;2023-03-12T06:48:23;99001.59;;;10.71;38.58
11343;BME280;5726;42.160;24.746;2023-03-12T06:50:49;99000.09;;;10.79;38.96
11343;BME280;5726;42.160;24.746;2023-03-12T06:53:16;99005.63;;;10.96;37.73
11343;BME280;5726;42.160;24.746;2023-03-12T06:55:42;99003.16;;;10.86;37.78
11343;BME280;5726;42.160;24.746;2023-03-12T06:58:08;99005.09;;;10.72;38.63
11343;BME280;5726;42.160;24.746;2023-03-12T07:00:33;99011.16;;;10.99;38.24
11343;BME280;5726;42.160;24.746;2023-03-12T07:02:59;99018.94;;;10.87;38.34
11343;BME280;5726;42.160;24.746;2023-03-12T07:05:24;99020.28;;;10.76;38.62
11343;BME280;5726;42.160;24.746;2023-03-12T07:07:50;99019.91;;;10.56;37.71
11343;BME280;5726;42.160;24.746;2023-03-12T07:10:16;99009.19;;;11.04;38.59
11343;BME280;5726;42.160;24.746;2023-03-12T07:12:42;99017.09;;;11.09;37.74
11343;BME280;5726;42.160;24.746;2023-03-12T07:15:08;99028.69;;;11.53;37.36
11343;BME280;5726;42.160;24.746;2023-03-12T07:17:33;99028.69;;;11.18;37.56
11343;BME280;5726;42.160;24.746;2023-03-12T07:19:59;99038.44;;;11.14;37.71
11343;BME280;5726;42.160;24.746;2023-03-12T07:22:24;99045.81;;;11.09;37.26
11343;BME280;5726;42.160;24.746;2023-03-12T07:24:49;99035.50;;;11.02;37.90
11343;BME280;5726;42.160;24.746;2023-03-12T07:27:16;99041.72;;;10.76;36.79
11343;BME280;5726;42.160;24.746;2023-03-12T07:29:42;99036.25;;;10.68;38.01
11343;BME280;5726;42.160;24.746;2023-03-12T07:32:07;99042.03;;;10.75;37.54
11343;BME280;5726;42.160;24.746;2023-03-12T07:34:33;99036.28;;;10.41;37.20
11343;BME280;5726;42.160;24.746;2023-03-12T07:36:58;99029.16;;;10.23;37.94
11343;BME280;5726;42.160;24.746;2023-03-12T07:39:24;99021.88;;;10.37;37.57
11343;BME280;5726;42.160;24.746;2023-03-12T07:41:50;99030.44;;;10.52;37.09
11343;BME280;5726;42.160;24.746;2023-03-12T07:44:15;99028.06;;;10.51;39.06
11343;BME280;5726;42.160;24.746;2023-03-12T07:46:41;99027.81;;;10.74;39.14
11343;BME280;5726;42.160;24.746;2023-03-12T07:49:06;99029.16;;;10.98;40.14
11343;BME280;5726;42.160;24.746;2023-03-12T07:51:32;99013.69;;;11.39;39.58
11343;BME280;5726;42.160;24.746;2023-03-12T07:53:57;99033.13;;;11.58;37.53
11343;BME280;5726;42.160;24.746;2023-03-12T07:56:23;99037.44;;;11.67;36.55
11343;BME280;5726;42.160;24.746;2023-03-12T07:58:48;99025.63;;;11.98;37.09
11343;BME280;5726;42.160;24.746;2023-03-12T08:01:14;99027.00;;;11.88;38.40
11343;BME280;5726;42.160;24.746;2023-03-12T08:03:39;99014.19;;;12.23;35.84
11343;BME280;5726;42.160;24.746;2023-03-12T08:06:05;99023.72;;;11.69;35.40
11343;BME280;5726;42.160;24.746;2023-03-12T08:08:31;99026.25;;;11.30;36.96
11343;BME280;5726;42.160;24.746;2023-03-12T08:10:57;99029.78;;;11.83;37.29
11343;BME280;5726;42.160;24.746;2023-03-12T08:13:23;99035.81;;;12.18;36.51
11343;BME280;5726;42.160;24.746;2023-03-12T08:15:51;99045.25;;;12.07;35.61
11343;BME280;5726;42.160;24.746;2023-03-12T08:18:18;99062.72;;;11.66;35.39
11343;BME280;5726;42.160;24.746;2023-03-12T08:20:43;99061.06;;;11.57;37.74
11343;BME280;5726;42.160;24.746;2023-03-12T08:23:09;99049.34;;;12.05;40.81
11343;BME280;5726;42.160;24.746;2023-03-12T08:25:35;99060.91;;;12.44;36.50
11343;BME280;5726;42.160;24.746;2023-03-12T08:28:02;99055.50;;;11.75;35.23
11343;BME280;5726;42.160;24.746;2023-03-12T08:30:28;99048.50;;;11.96;36.04
11343;BME280;5726;42.160;24.746;2023-03-12T08:32:54;99037.06;;;11.82;34.82
11343;BME280;5726;42.160;24.746;2023-03-12T08:35:20;99043.81;;;12.01;35.88
11343;BME280;5726;42.160;24.746;2023-03-12T08:37:46;99044.38;;;12.20;34.55
11343;BME280;5726;42.160;24.746;2023-03-12T08:40:11;99019.00;;;12.04;32.80
11343;BME280;5726;42.160;24.746;2023-03-12T08:42:42;98994.25;;;12.16;32.87
11343;BME280;5726;42.160;24.746;2023-03-12T08:45:09;98997.69;;;11.78;32.71
11343;BME280;5726;42.160;24.746;2023-03-12T08:47:35;99001.84;;;11.53;33.84
11343;BME280;5726;42.160;24.746;2023-03-12T08:50:01;99006.69;;;11.73;33.97
11343;BME280;5726;42.160;24.746;2023-03-12T08:52:27;99024.56;;;11.78;34.81
11343;BME280;5726;42.160;24.746;2023-03-12T08:54:52;99019.31;;;12.03;34.11
11343;BME280;5726;42.160;24.746;2023-03-12T08:57:17;99025.22;;;12.13;35.05
11343;BME280;5726;42.160;24.746;2023-03-12T08:59:43;99032.50;;;12.21;33.60
11343;BME280;5726;42.160;24.746;2023-03-12T09:02:11;99041.50;;;12.17;33.59
11343;BME280;5726;42.160;24.746;2023-03-12T09:04:36;99059.38;;;12.21;33.30
11343;BME280;5726;42.160;24.746;2023-03-12T09:07:03;99060.72;;;12.32;33.30
11343;BME280;5726;42.160;24.746;2023-03-12T09:09:29;99056.69;;;12.13;32.68
11343;BME280;5726;42.160;24.746;2023-03-12T09:11:54;99044.09;;;12.30;34.06
11343;BME280;5726;42.160;24.746;2023-03-12T09:14:20;99043.66;;;12.45;33.17
11343;BME280;5726;42.160;24.746;2023-03-12T09:16:45;99040.31;;;12.31;32.81
11343;BME280;5726;42.160;24.746;2023-03-12T09:19:11;99045.13;;;12.12;32.54
11343;BME280;5726;42.160;24.746;2023-03-12T09:21:36;99034.94;;;12.31;32.04
11343;BME280;5726;42.160;24.746;2023-03-12T09:24:02;99054.19;;;11.94;31.79
11343;BME280;5726;42.160;24.746;2023-03-12T09:26:27;99035.91;;;11.75;32.17
11343;BME280;5726;42.160;24.746;2023-03-12T09:28:53;99033.06;;;11.71;33.59
11343;BME280;5726;42.160;24.746;2023-03-12T09:31:19;99015.78;;;11.94;33.88
11343;BME280;5726;42.160;24.746;2023-03-12T09:33:44;99019.31;;;12.03;33.93
11343;BME280;5726;42.160;24.746;2023-03-12T09:36:10;99044.91;;;12.39;34.01
11343;BME280;5726;42.160;24.746;2023-03-12T09:38:35;99054.31;;;12.58;33.06
11343;BME280;5726;42.160;24.746;2023-03-12T09:41:05;99014.72;;;12.42;32.67
11343;BME280;5726;42.160;24.746;2023-03-12T09:43:42;99056.38;;;12.53;32.30
11343;BME280;5726;42.160;24.746;2023-03-12T09:46:17;99070.56;;;12.45;32.55
11343;BME280;5726;42.160;24.746;2023-03-12T09:48:44;99042.56;;;12.46;32.46
11343;BME280;5726;42.160;24.746;2023-03-12T09:51:19;99075.84;;;12.67;32.52
11343;BME280;5726;42.160;24.746;2023-03-12T09:53:51;99073.31;;;12.62;33.00
11343;BME280;5726;42.160;24.746;2023-03-12T09:56:20;99063.28;;;12.07;33.71
11343;BME280;5726;42.160;24.746;2023-03-12T09:58:46;99074.06;;;12.54;33.86
11343;BME280;5726;42.160;24.746;2023-03-12T10:04:15;99074.22;;;12.49;32.21
11343;BME280;5726;42.160;24.746;2023-03-12T10:06:55;99074.75;;;12.68;33.57
11343;BME280;5726;42.160;24.746;2023-03-12T10:10:06;99070.53;;;12.84;33.12
11343;BME280;5726;42.160;24.746;2023-03-12T10:17:44;99073.94;;;12.67;33.49
11343;BME280;5726;42.160;24.746;2023-03-12T10:23:12;99077.69;;;12.41;33.75
11343;BME280;5726;42.160;24.746;2023-03-12T10:25:44;99080.06;;;12.51;34.32
11343;BME280;5726;42.160;24.746;2023-03-12T10:28:18;99083.78;;;12.33;34.25
11343;BME280;5726;42.160;24.746;2023-03-12T10:30:49;99064.84;;;12.08;36.03
11343;BME280;5726;42.160;24.746;2023-03-12T10:33:18;99090.16;;;12.37;36.73
11343;BME280;5726;42.160;24.746;2023-03-12T10:35:45;99091.63;;;12.51;34.25
11343;BME280;5726;42.160;24.746;2023-03-12T10:38:17;99089.31;;;12.28;34.75
11343;BME280;5726;42.160;24.746;2023-03-12T10:40:44;99091.41;;;12.09;35.13
11343;BME280;5726;42.160;24.746;2023-03-12T10:43:10;99085.84;;;12.28;34.96
11343;BME280;5726;42.160;24.746;2023-03-12T10:45:58;99078.88;;;12.27;35.11
11343;BME280;5726;42.160;24.746;2023-03-12T10:48:25;99098.78;;;12.56;34.06
11343;BME280;5726;42.160;24.746;2023-03-12T10:51:07;99101.84;;;12.80;34.02
11343;BME280;5726;42.160;24.746;2023-03-12T10:53:34;99088.53;;;12.36;34.01
11343;BME280;5726;42.160;24.746;2023-03-12T10:56:06;99093.81;;;12.41;33.80
11343;BME280;5726;42.160;24.746;2023-03-12T10:58:40;99087.19;;;12.47;34.20
11343;BME280;5726;42.160;24.746;2023-03-12T11:03:48;99071.06;;;12.47;33.96
11343;BME280;5726;42.160;24.746;2023-03-12T11:06:26;99062.00;;;12.43;33.96
11343;BME280;5726;42.160;24.746;2023-03-12T11:09:19;99085.75;;;12.41;33.53
11343;BME280;5726;42.160;24.746;2023-03-12T11:11:46;99070.00;;;12.65;32.87
11343;BME280;5726;42.160;24.746;2023-03-12T11:16:40;99067.59;;;12.55;33.02
11343;BME280;5726;42.160;24.746;2023-03-12T11:19:06;99085.31;;;12.94;32.93
11343;BME280;5726;42.160;24.746;2023-03-12T11:21:34;99080.25;;;13.10;34.16
11343;BME280;5726;42.160;24.746;2023-03-12T11:26:43;99075.81;;;13.05;32.77
11343;BME280;5726;42.160;24.746;2023-03-12T11:31:48;99070.03;;;12.82;33.14
11343;BME280;5726;42.160;24.746;2023-03-12T11:34:25;99077.41;;;13.06;33.21
11343;BME280;5726;42.160;24.746;2023-03-12T11:44:32;99077.59;;;13.43;31.91
11343;BME280;5726;42.160;24.746;2023-03-12T11:47:15;99080.28;;;13.35;30.80
11343;BME280;5726;42.160;24.746;2023-03-12T11:50:06;99068.56;;;13.31;31.87
11343;BME280;5726;42.160;24.746;2023-03-12T11:58:29;99065.69;;;14.40;32.23
11343;BME280;5726;42.160;24.746;2023-03-12T12:27:37;99067.38;;;14.08;29.84
11343;BME280;5726;42.160;24.746;2023-03-12T12:33:00;99061.34;;;14.11;30.43
11343;BME280;5726;42.160;24.746;2023-03-12T12:35:36;99057.28;;;14.42;30.75
11343;BME280;5726;42.160;24.746;2023-03-12T12:48:56;99076.81;;;14.39;29.13
11343;BME280;5726;42.160;24.746;2023-03-12T12:51:27;99077.75;;;14.43;29.47
11343;BME280;5726;42.160;24.746;2023-03-12T12:54:08;99083.59;;;14.45;28.93
11343;BME280;5726;42.160;24.746;2023-03-12T13:02:18;99075.63;;;14.85;28.08
11343;BME280;5726;42.160;24.746;2023-03-12T13:04:45;99076.69;;;14.64;27.72
11343;BME280;5726;42.160;24.746;2023-03-12T13:09:43;99078.03;;;14.50;28.37
11343;BME280;5726;42.160;24.746;2023-03-12T13:14:42;99084.84;;;14.10;28.26
11343;BME280;5726;42.160;24.746;2023-03-12T13:20:04;99085.13;;;14.17;29.17
11343;BME280;5726;42.160;24.746;2023-03-12T13:22:47;99082.63;;;14.49;28.34
11343;BME280;5726;42.160;24.746;2023-03-12T13:28:00;99071.34;;;14.84;27.77
11343;BME280;5726;42.160;24.746;2023-03-12T13:30:45;99077.25;;;14.41;28.67
11343;BME280;5726;42.160;24.746;2023-03-12T13:33:14;99090.75;;;14.41;28.38
11343;BME280;5726;42.160;24.746;2023-03-12T13:35:40;99091.63;;;14.62;28.51
11343;BME280;5726;42.160;24.746;2023-03-12T13:38:17;99077.00;;;14.91;27.97
11343;BME280;5726;42.160;24.746;2023-03-12T13:40:58;99079.78;;;15.03;27.22
11343;BME280;5726;42.160;24.746;2023-03-12T13:48:33;99097.97;;;14.94;27.30
11343;BME280;5726;42.160;24.746;2023-03-12T13:51:20;99105.00;;;14.50;28.17
11343;BME280;5726;42.160;24.746;2023-03-12T13:53:51;99099.91;;;14.85;28.05
11343;BME280;5726;42.160;24.746;2023-03-12T13:56:19;99108.28;;;14.64;28.48
11343;BME280;5726;42.160;24.746;2023-03-12T13:59:01;99109.75;;;14.53;28.25
11343;BME280;5726;42.160;24.746;2023-03-12T14:01:34;99106.34;;;14.35;28.87
11343;BME280;5726;42.160;24.746;2023-03-12T14:04:06;99110.13;;;14.34;28.78
11343;BME280;5726;42.160;24.746;2023-03-12T14:06:51;99098.16;;;14.89;27.33
11343;BME280;5726;42.160;24.746;2023-03-12T14:14:47;99110.81;;;14.69;27.67
11343;BME280;5726;42.160;24.746;2023-03-12T14:17:18;99109.50;;;14.29;28.41
11343;BME280;5726;42.160;24.746;2023-03-12T14:19:54;99102.06;;;14.26;28.55
11343;BME280;5726;42.160;24.746;2023-03-12T14:22:21;99109.16;;;14.47;28.45
11343;BME280;5726;42.160;24.746;2023-03-12T14:24:55;99115.13;;;14.53;28.22
11343;BME280;5726;42.160;24.746;2023-03-12T14:27:30;99120.44;;;14.78;27.77
11343;BME280;5726;42.160;24.746;2023-03-12T14:30:19;99116.53;;;14.59;27.92
11343;BME280;5726;42.160;24.746;2023-03-12T14:32:43;99123.09;;;14.86;28.12
11343;BME280;5726;42.160;24.746;2023-03-12T14:35:24;99133.44;;;14.84;28.19
11343;BME280;5726;42.160;24.746;2023-03-12T14:38:20;99130.53;;;14.89;27.63
11343;BME280;5726;42.160;24.746;2023-03-12T14:40:46;99122.41;;;14.98;27.56
11343;BME280;5726;42.160;24.746;2023-03-12T14:43:28;99137.06;;;14.88;27.88
11343;BME280;5726;42.160;24.746;2023-03-12T14:46:03;99130.53;;;14.61;28.23
11343;BME280;5726;42.160;24.746;2023-03-12T14:48:34;99133.28;;;14.81;31.81
11343;BME280;5726;42.160;24.746;2023-03-12T14:51:02;99135.19;;;15.38;34.03
11343;BME280;5726;42.160;24.746;2023-03-12T14:53:33;99132.41;;;15.26;28.62
11343;BME280;5726;42.160;24.746;2023-03-12T14:56:09;99136.28;;;15.66;28.22
11343;BME280;5726;42.160;24.746;2023-03-12T14:58:47;99144.44;;;15.77;28.39
11343;BME280;5726;42.160;24.746;2023-03-12T15:01:19;99144.66;;;15.73;28.02
11343;BME280;5726;42.160;24.746;2023-03-12T15:03:48;99151.47;;;15.50;29.94
11343;BME280;5726;42.160;24.746;2023-03-12T15:06:19;99149.56;;;15.71;29.88